Trenton Mercer Airport
KTTN : rendu visible

Aérodrome :











RETROUVEZ-NOUS SUR...

 
LOGIN :

S'inscrire | Disclaimer

   EN    FR    IT 

 









Légende :    VFR   VFR Marginal   IFR   IFR Intensif   IFR Très Intensif
Visi : 
Plafond : 
>= 8 km
>= 3000ft
5 à 8 km
1000 à 3000 ft
1500m à 5 km
500 à 1000 ft
800 à 1500m
200 à 500 ft
< 800m
< 200 ft
Symboles :   Orages  Brouillard  Fortes neiges  Fortes précipitations  Vent > 20 kt






- Altitude de l'aérodrome : 213 ft
- Code IATA : TTN


KTTN - Trenton Mercer

DERNIER METAR :
  • 202253Z 34003KT 10SM FEW055 00/M12 A3040 RMK AO2 SLP289 T00001117

METARs EXPIRÉS :
  • 202153Z VRB04KT 10SM CLR 01/M12 A3038 RMK AO2 SLP283 T00111122
  • 202053Z 27005KT 10SM CLR 01/M13 A3039 RMK AO2 SLP286 T00111128 56013

TAF KTTN
Valide du 20 à 18h jusqu'au 21 à 18h UTC


201728Z 2018/2118 34006KT P6SM SCT060 BKN120
TEMPO 2021/2024 BKN060 OVC120
FM210000 36008KT P6SM BKN060 OVC120
FM210300 01008KT P6SM SCT060 BKN120
FM210600 01008G16KT P6SM SKC
FM211600 34006KT P6SM SKC



MET'MAP, la Météo Aéronautique d'un coup d'oeil ! - Copyright ORBIFLY Décembre 2007 - Disclaimer

ORBIFLY MET'MAP TEAM :

Programmation & Développement : Alexandra Zaïnal
Sur une idée originale de : Baudouin d'Aumeries
Assistance à la programmation : Marc-Olivier Méhu
Soutien technique & logistique : Manuel Goepfert

Contact : metmap@orbifly.com




SOURCES & CREDITS :

   NOAA       Earth
Advisory